Time;durP1;ratioP1;P1;durP2;ratioP2;P2;SDS_P1;SDS_P2;PMS_P1;PMS_P2;Temp;Humidity;BMP_temperature;BMP_pressure;BME280_temperature;BME280_humidity;BME280_pressure;Samples;Min_cycle;Max_cycle;Signal;HPM_P1;HPM_P2
2022/03/24 00:01:40;;;;;;;19.10;9.85;;;;;;;1.78;87.05;99486.88;5086985;28;20016;-66
2022/03/24 00:04:06;;;;;;;21.27;10.05;;;;;;;1.74;87.57;99491.09;5078490;28;20047;-66
2022/03/24 00:06:32;;;;;;;20.45;9.98;;;;;;;1.67;87.32;99483.09;5066594;28;20419;-66
2022/03/24 00:08:57;;;;;;;21.13;10.63;;;;;;;1.78;87.32;99492.09;5066529;28;20102;-66
2022/03/24 00:11:22;;;;;;;17.52;10.02;;;;;;;1.70;87.76;99484.06;5066371;28;20059;-66
2022/03/24 00:13:48;;;;;;;19.73;8.82;;;;;;;1.73;87.34;99478.97;5066479;28;20021;-66
2022/03/24 00:16:15;;;;;;;16.33;8.60;;;;;;;1.50;86.77;99479.13;5066244;28;20045;-66
2022/03/24 00:18:41;;;;;;;23.63;9.52;;;;;;;1.50;88.07;99482.63;5067605;28;20216;-66
2022/03/24 00:21:07;;;;;;;20.63;10.32;;;;;;;1.56;88.62;99484.50;5084682;28;20016;-66
2022/03/24 00:23:32;;;;;;;26.30;11.75;;;;;;;1.18;88.62;99474.69;5072618;28;20074;-66
2022/03/24 00:25:58;;;;;;;23.33;10.15;;;;;;;1.29;89.38;99483.66;5074169;28;20033;-66
2022/03/24 00:28:23;;;;;;;23.95;11.13;;;;;;;1.25;89.26;99477.53;5074804;28;20028;-66
2022/03/24 00:30:49;;;;;;;17.65;10.10;;;;;;;1.30;89.11;99475.09;5066340;28;20308;-66
2022/03/24 00:33:14;;;;;;;20.80;10.38;;;;;;;1.25;88.66;99477.53;5066137;28;20025;-66
2022/03/24 00:35:40;;;;;;;25.50;9.55;;;;;;;1.33;88.67;99480.34;5066112;28;20017;-66
2022/03/24 00:38:05;;;;;;;19.45;9.20;;;;;;;1.32;88.37;99469.09;5072472;28;20312;-66
2022/03/24 00:40:32;;;;;;;21.63;11.05;;;;;;;1.33;87.65;99482.94;5086275;28;20327;-66
2022/03/24 00:42:59;;;;;;;23.38;10.07;;;;;;;1.28;88.56;99476.72;5086231;28;20246;-66
2022/03/24 00:45:25;;;;;;;24.13;10.55;;;;;;;1.30;88.47;99475.09;5085901;28;20071;-67
2022/03/24 00:47:51;;;;;;;24.13;11.05;;;;;;;1.26;88.24;99475.78;5083141;28;20115;-66
2022/03/24 00:50:17;;;;;;;22.83;11.02;;;;;;;1.27;88.41;99478.44;5065014;28;20084;-67
2022/03/24 00:52:43;;;;;;;21.45;8.90;;;;;;;1.17;88.01;99472.94;5065760;28;20056;-67
2022/03/24 00:55:11;;;;;;;22.27;9.35;;;;;;;1.19;88.23;99477.34;5065934;28;20017;-67
2022/03/24 00:57:37;;;;;;;19.48;10.27;;;;;;;1.17;88.54;99475.53;5065734;28;20025;-67
2022/03/24 01:00:03;;;;;;;20.15;10.07;;;;;;;1.11;88.52;99472.75;5065646;28;20080;-67
2022/03/24 01:02:28;;;;;;;21.27;11.00;;;;;;;1.12;88.64;99471.91;5065798;28;20355;-67
2022/03/24 01:04:55;;;;;;;19.88;9.95;;;;;;;0.93;88.02;99462.69;5065510;28;20021;-67
2022/03/24 01:07:21;;;;;;;23.08;10.80;;;;;;;0.83;88.32;99464.94;5065467;28;20024;-67
2022/03/24 01:09:47;;;;;;;24.33;9.65;;;;;;;0.73;89.08;99458.56;5065308;28;20021;-67
2022/03/24 01:12:13;;;;;;;25.80;8.82;;;;;;;0.85;88.81;99463.28;5065293;28;20082;-66
2022/03/24 01:14:39;;;;;;;22.48;10.15;;;;;;;0.88;89.08;99463.41;5077687;28;20048;-66
2022/03/24 01:17:07;;;;;;;26.85;10.65;;;;;;;0.87;88.79;99461.59;5085311;28;20028;-66
2022/03/24 01:19:33;;;;;;;24.20;10.43;;;;;;;0.77;88.92;99454.38;5085482;28;20024;-66
2022/03/24 01:22:00;;;;;;;19.00;10.75;;;;;;;0.87;88.37;99462.50;5085159;28;20020;-66
2022/03/24 01:24:26;;;;;;;20.70;10.70;;;;;;;0.89;87.96;99462.56;5085140;28;20028;-67
2022/03/24 01:26:51;;;;;;;19.40;10.18;;;;;;;0.80;89.20;99467.44;5085083;28;20216;-67
2022/03/24 01:29:19;;;;;;;21.52;10.30;;;;;;;0.77;88.60;99464.75;5084751;28;20079;-67
2022/03/24 01:31:44;;;;;;;25.60;9.98;;;;;;;0.75;88.21;99458.63;5084896;28;20095;-67
2022/03/24 01:34:09;;;;;;;20.15;8.93;;;;;;;0.76;88.50;99457.81;5084971;28;20332;-67
2022/03/24 01:36:35;;;;;;;23.88;11.05;;;;;;;0.75;88.78;99466.41;5084920;28;20032;-67
2022/03/24 01:39:01;;;;;;;22.10;10.18;;;;;;;0.74;88.92;99454.28;5082525;28;20024;-67
2022/03/24 01:41:26;;;;;;;27.77;10.90;;;;;;;0.70;89.06;99453.31;5064769;28;20025;-67
2022/03/24 01:43:52;;;;;;;19.15;10.05;;;;;;;0.73;89.35;99452.53;5064748;28;20255;-67
2022/03/24 01:46:26;;;;;;;22.23;11.43;;;;;;;0.78;88.78;99453.53;5064699;28;20047;-67
2022/03/24 01:48:52;;;;;;;26.33;10.82;;;;;;;0.69;88.83;99448.09;5064634;28;20031;-67
2022/03/24 01:51:18;;;;;;;24.95;10.50;;;;;;;0.56;88.17;99448.50;5064517;28;20020;-67
2022/03/24 01:53:44;;;;;;;18.02;9.10;;;;;;;0.72;88.45;99446.47;5064837;28;20017;-67
2022/03/24 01:56:11;;;;;;;23.27;11.05;;;;;;;0.70;88.23;99453.31;5064538;28;20395;-67
2022/03/24 01:58:38;;;;;;;23.27;11.50;;;;;;;0.66;89.34;99453.19;5064505;28;20028;-67
2022/03/24 02:01:30;;;;;;;20.92;12.18;;;;;;;0.59;89.31;99443.41;5064834;28;20092;-67
2022/03/24 02:03:56;;;;;;;26.70;11.90;;;;;;;0.71;89.24;99449.00;5064406;28;20028;-67
2022/03/24 02:06:21;;;;;;;25.13;11.00;;;;;;;0.68;88.48;99447.19;5064318;28;20031;-67
2022/03/24 02:08:47;;;;;;;31.65;12.63;;;;;;;0.57;88.70;99447.69;5064296;28;20063;-67
2022/03/24 02:11:12;;;;;;;23.23;11.05;;;;;;;0.57;88.89;99450.28;5067371;28;20024;-67
2022/03/24 02:13:38;;;;;;;23.83;12.02;;;;;;;0.46;88.63;99451.63;5084299;28;20027;-67
2022/03/24 02:16:11;;;;;;;26.70;13.00;;;;;;;0.48;88.70;99444.78;5084120;28;20093;-66
2022/03/24 02:18:36;;;;;;;23.58;11.00;;;;;;;0.34;88.50;99446.06;5082544;28;20020;-66
2022/03/24 02:21:02;;;;;;;23.08;11.07;;;;;;;0.17;89.44;99442.00;5084172;28;20087;-66
2022/03/24 02:23:27;;;;;;;33.42;13.07;;;;;;;0.35;89.71;99442.63;5084149;28;20339;-66
2022/03/24 02:25:55;;;;;;;19.27;10.13;;;;;;;0.31;88.51;99445.94;5084134;28;20028;-66
2022/03/24 02:28:22;;;;;;;22.40;10.13;;;;;;;0.25;89.52;99440.56;5084110;28;20032;-66
2022/03/24 02:30:49;;;;;;;28.42;11.27;;;;;;;0.22;89.40;99445.63;5083989;28;20087;-66
2022/03/24 02:33:15;;;;;;;19.67;10.20;;;;;;;0.15;88.66;99446.28;5084322;28;20109;-66
2022/03/24 02:35:40;;;;;;;22.00;10.65;;;;;;;0.22;89.62;99443.91;5084016;28;20074;-66
2022/03/24 02:38:06;;;;;;;21.80;10.18;;;;;;;0.35;89.21;99442.63;5084234;28;20091;-66
2022/03/24 02:40:32;;;;;;;28.02;11.18;;;;;;;0.32;88.10;99452.88;5083991;28;20020;-66
2022/03/24 02:42:57;;;;;;;25.50;11.15;;;;;;;0.28;88.09;99445.84;5084212;28;20028;-66
2022/03/24 02:45:23;;;;;;;22.02;10.68;;;;;;;0.23;88.02;99447.38;5083935;28;20324;-66
2022/03/24 02:47:49;;;;;;;17.77;9.55;;;;;;;0.29;88.29;99448.50;5083890;28;20024;-66
2022/03/24 02:50:15;;;;;;;18.58;10.43;;;;;;;0.25;88.49;99453.50;5067237;28;20092;-66
2022/03/24 02:52:40;;;;;;;19.65;10.68;;;;;;;0.20;89.72;99452.47;5063776;28;20083;-66
2022/03/24 02:55:07;;;;;;;24.05;10.02;;;;;;;0.19;89.20;99450.72;5064890;28;20374;-66
2022/03/24 02:57:33;;;;;;;25.90;11.77;;;;;;;0.19;88.50;99446.41;5063963;28;20032;-66
2022/03/24 02:59:59;;;;;;;26.58;10.90;;;;;;;0.16;89.21;99445.44;5063960;28;20204;-66
2022/03/24 03:02:25;;;;;;;20.48;10.80;;;;;;;0.13;89.61;99445.31;5063693;28;20264;-66
2022/03/24 03:04:53;;;;;;;28.58;12.23;;;;;;;0.11;89.41;99447.84;5063640;28;20052;-66
2022/03/24 03:07:20;;;;;;;23.70;9.60;;;;;;;0.10;89.51;99445.22;5063583;28;20024;-66
2022/03/24 03:09:46;;;;;;;21.10;10.55;;;;;;;0.14;89.13;99447.06;5063555;28;20029;-66
2022/03/24 03:12:11;;;;;;;18.05;10.20;;;;;;;0.17;88.63;99444.59;5063421;28;20055;-66
2022/03/24 03:14:38;;;;;;;21.00;10.48;;;;;;;0.12;89.04;99451.34;5067083;28;20375;-66
2022/03/24 03:17:04;;;;;;;26.15;11.73;;;;;;;0.16;89.12;99451.50;5067517;28;20021;-66
2022/03/24 03:19:30;;;;;;;22.60;9.57;;;;;;;0.18;88.14;99454.13;5077286;28;20035;-66
2022/03/24 03:21:56;;;;;;;23.92;11.15;;;;;;;0.09;88.36;99451.22;5087497;28;20020;-66
2022/03/24 03:24:22;;;;;;;28.58;11.23;;;;;;;0.03;88.50;99450.19;5087457;28;20336;-66
2022/03/24 03:26:48;;;;;;;18.30;9.77;;;;;;;-0.06;88.33;99455.03;5087439;28;20028;-66
2022/03/24 03:29:14;;;;;;;26.73;11.30;;;;;;;-0.12;89.43;99449.63;5087604;28;20035;-66
2022/03/24 03:31:40;;;;;;;20.77;10.90;;;;;;;-0.13;90.23;99455.63;5087281;28;20020;-66
2022/03/24 03:34:07;;;;;;;22.60;10.38;;;;;;;-0.19;90.82;99447.66;5087256;28;20024;-66
2022/03/24 03:36:35;;;;;;;25.90;10.80;;;;;;;-0.18;89.96;99458.91;5087504;28;20024;-66
2022/03/24 03:39:00;;;;;;;24.92;10.50;;;;;;;-0.17;90.20;99453.78;5087182;28;20039;-66
2022/03/24 03:41:29;;;;;;;23.35;10.73;;;;;;;-0.19;90.29;99458.00;5074205;28;20044;-66
2022/03/24 03:43:55;;;;;;;32.38;11.85;;;;;;;-0.14;90.24;99456.47;5067053;28;20229;-66
2022/03/24 03:46:21;;;;;;;27.05;10.35;;;;;;;-0.07;89.50;99461.03;5067022;28;20031;-66
2022/03/24 03:48:47;;;;;;;28.85;10.75;;;;;;;-0.20;89.19;99461.44;5066909;28;20033;-66
2022/03/24 03:51:12;;;;;;;22.73;11.73;;;;;;;-0.29;89.34;99461.09;5066824;28;20391;-66
2022/03/24 03:53:38;;;;;;;23.23;10.48;;;;;;;-0.23;88.96;99463.91;5067019;28;20029;-66
2022/03/24 03:56:05;;;;;;;25.88;11.90;;;;;;;-0.44;88.83;99459.66;5066830;28;20053;-66
2022/03/24 03:58:34;;;;;;;23.77;11.63;;;;;;;-0.37;88.49;99467.72;5078126;28;20051;-66
2022/03/24 04:00:59;;;;;;;21.25;9.63;;;;;;;-0.45;88.34;99469.13;5086723;28;20017;-66
2022/03/24 04:03:27;;;;;;;25.55;10.52;;;;;;;-0.48;88.83;99463.84;5087005;28;20035;-66
2022/03/24 04:06:09;;;;;;;21.55;10.25;;;;;;;-0.45;90.10;99463.94;5086720;28;20052;-66
2022/03/24 04:08:36;;;;;;;35.03;13.35;;;;;;;-0.48;89.70;99468.13;5086684;28;20024;-66
2022/03/24 04:11:01;;;;;;;27.00;13.00;;;;;;;-0.49;89.64;99464.66;5084640;28;20059;-66
2022/03/24 04:13:28;;;;;;;25.80;12.25;;;;;;;-0.33;89.50;99469.56;5085776;28;20024;-66
2022/03/24 04:15:54;;;;;;;30.10;9.48;;;;;;;-0.46;88.97;99462.19;5085865;28;20225;-66
2022/03/24 04:18:22;;;;;;;14.82;8.38;;;;;;;-0.44;89.17;99463.13;5085797;28;20028;-66
2022/03/24 04:20:48;;;;;;;25.05;12.10;;;;;;;-0.47;89.39;99468.19;5086148;28;20048;-66
2022/03/24 04:23:13;;;;;;;32.67;11.57;;;;;;;-0.44;89.71;99475.19;5085602;28;20324;-66
2022/03/24 04:25:39;;;;;;;21.58;11.25;;;;;;;-0.45;89.35;99463.94;5084676;28;20048;-66
2022/03/24 04:28:06;;;;;;;36.30;12.10;;;;;;;-0.34;89.52;99465.22;5085766;28;20028;-66
2022/03/24 04:30:33;;;;;;;23.92;12.98;;;;;;;-0.31;88.29;99469.63;5086457;28;20051;-66
2022/03/24 04:32:58;;;;;;;27.60;11.57;;;;;;;-0.34;88.31;99475.56;5086236;28;20347;-66
2022/03/24 04:35:24;;;;;;;27.55;12.95;;;;;;;-0.46;88.15;99464.78;5086182;28;20028;-66
2022/03/24 04:37:50;;;;;;;24.17;10.88;;;;;;;-0.47;89.13;99460.41;5086074;28;20341;-66
2022/03/24 04:40:17;;;;;;;24.15;11.15;;;;;;;-0.49;89.16;99467.25;5074332;28;20205;-66
2022/03/24 04:42:45;;;;;;;27.52;10.98;;;;;;;-0.49;89.26;99467.25;5069522;28;20016;-66
2022/03/24 04:45:13;;;;;;;33.95;13.60;;;;;;;-0.45;89.38;99476.88;5085987;28;20052;-66
2022/03/24 04:47:39;;;;;;;36.67;13.05;;;;;;;-0.44;89.32;99480.34;5085937;28;20381;-66
2022/03/24 04:50:05;;;;;;;34.55;11.13;;;;;;;-0.50;90.09;99470.66;5085786;28;20032;-66
2022/03/24 04:52:30;;;;;;;27.70;12.05;;;;;;;-0.61;89.03;99463.31;5085830;28;20032;-66
2022/03/24 04:54:59;;;;;;;30.00;13.80;;;;;;;-0.62;89.63;99465.03;5085784;28;20039;-66
2022/03/24 04:57:25;;;;;;;29.77;12.10;;;;;;;-0.66;89.69;99465.72;5085730;28;20216;-66
2022/03/24 04:59:50;;;;;;;29.58;13.40;;;;;;;-0.52;89.85;99469.72;5086279;28;20031;-66
2022/03/24 05:02:17;;;;;;;31.02;12.80;;;;;;;-0.54;89.77;99468.78;5065636;28;20012;-66
2022/03/24 05:04:43;;;;;;;23.73;10.70;;;;;;;-0.70;88.93;99466.44;5066957;28;20231;-66
2022/03/24 05:07:11;;;;;;;22.42;11.32;;;;;;;-0.62;88.56;99469.31;5065523;28;20029;-66
2022/03/24 05:09:38;;;;;;;32.03;13.77;;;;;;;-0.77;89.21;99467.03;5065470;28;20081;-66
2022/03/24 05:12:04;;;;;;;26.33;10.90;;;;;;;-0.87;89.30;99462.34;5081667;28;20108;-66
2022/03/24 05:14:31;;;;;;;30.02;11.48;;;;;;;-0.84;89.78;99467.63;5082409;28;20043;-66
2022/03/24 05:16:57;;;;;;;33.05;13.82;;;;;;;-0.79;89.68;99467.81;5083832;28;20273;-66
2022/03/24 05:19:23;;;;;;;30.70;10.50;;;;;;;-0.78;89.30;99467.88;5064383;28;20020;-66
2022/03/24 05:21:48;;;;;;;24.85;12.75;;;;;;;-0.70;89.25;99469.03;5079352;28;20351;-66
2022/03/24 05:24:14;;;;;;;26.30;11.88;;;;;;;-0.81;89.36;99470.34;5082936;28;20032;-66
2022/03/24 05:26:40;;;;;;;25.52;12.57;;;;;;;-0.68;89.67;99475.16;5084067;28;20012;-66
2022/03/24 05:29:06;;;;;;;31.23;13.18;;;;;;;-0.65;89.42;99479.53;5083407;28;20024;-66
2022/03/24 05:31:32;;;;;;;28.30;13.23;;;;;;;-0.72;89.60;99480.16;5075564;28;20071;-66
2022/03/24 05:33:57;;;;;;;22.27;11.77;;;;;;;-0.88;89.48;99475.22;5072974;28;20017;-66
2022/03/24 05:36:23;;;;;;;23.80;12.27;;;;;;;-0.82;90.34;99481.47;5067048;28;20020;-66
2022/03/24 05:38:48;;;;;;;33.45;12.07;;;;;;;-0.74;89.76;99485.25;5064695;28;20029;-66
2022/03/24 05:41:14;;;;;;;23.17;11.07;;;;;;;-0.64;90.59;99487.34;5065015;28;20024;-66
2022/03/24 05:43:40;;;;;;;30.05;13.70;;;;;;;-0.71;90.21;99487.97;5064777;28;20071;-66
2022/03/24 05:46:06;;;;;;;29.80;12.20;;;;;;;-0.69;90.38;99488.88;5064751;28;20090;-66
2022/03/24 05:48:33;;;;;;;31.55;12.60;;;;;;;-0.51;89.58;99489.56;5064680;28;20028;-66
2022/03/24 05:51:00;;;;;;;26.88;12.30;;;;;;;-0.56;89.25;99491.13;5064569;28;20220;-66
2022/03/24 05:53:25;;;;;;;25.63;12.60;;;;;;;-0.53;89.33;99486.03;5064623;28;20079;-66
2022/03/24 05:55:51;;;;;;;28.27;12.48;;;;;;;-0.35;88.96;99491.00;5064609;28;20036;-66
2022/03/24 05:58:17;;;;;;;32.72;13.98;;;;;;;-0.20;88.26;99497.66;5064787;28;20084;-66
2022/03/24 06:00:42;;;;;;;24.45;12.50;;;;;;;-0.03;87.96;99495.69;5064760;28;20115;-66
2022/03/24 06:03:08;;;;;;;36.75;12.40;;;;;;;0.11;87.95;99503.91;5064525;28;20271;-66
2022/03/24 06:05:35;;;;;;;40.33;13.40;;;;;;;0.19;87.84;99498.16;5064461;28;20324;-66
2022/03/24 06:08:01;;;;;;;32.67;13.15;;;;;;;0.35;88.01;99504.78;5064318;28;20025;-66
2022/03/24 06:10:27;;;;;;;31.63;13.07;;;;;;;0.64;86.61;99510.09;5064179;28;20051;-66
2022/03/24 06:12:53;;;;;;;24.15;11.07;;;;;;;1.04;85.44;99501.91;5064298;28;20025;-66
2022/03/24 06:15:19;;;;;;;27.23;11.95;;;;;;;1.34;83.76;99502.84;5064084;28;20049;-66
2022/03/24 06:17:44;;;;;;;29.92;11.25;;;;;;;1.61;82.34;99499.38;5064453;28;20067;-66
2022/03/24 06:20:11;;;;;;;27.33;11.55;;;;;;;1.89;80.82;99511.41;5064165;28;20086;-66
2022/03/24 06:22:49;;;;;;;31.65;13.02;;;;;;;2.17;80.25;99509.66;5064220;28;20127;-66
2022/03/24 06:25:15;;;;;;;31.17;12.45;;;;;;;2.53;79.57;99519.25;5064184;28;20048;-66
2022/03/24 06:27:41;;;;;;;34.67;12.93;;;;;;;2.89;78.05;99510.69;5064147;28;20021;-66
2022/03/24 06:30:08;;;;;;;32.75;13.45;;;;;;;3.00;78.14;99508.34;5063942;28;20347;-66
2022/03/24 06:32:33;;;;;;;35.97;12.60;;;;;;;3.39;77.23;99524.88;5063941;28;20025;-66
2022/03/24 06:34:59;;;;;;;30.92;12.55;;;;;;;3.92;75.19;99519.09;5063984;28;20099;-66
2022/03/24 06:37:26;;;;;;;34.25;14.35;;;;;;;4.20;74.46;99522.31;5064162;28;20020;-66
2022/03/24 06:39:52;;;;;;;25.00;12.90;;;;;;;4.62;72.97;99521.38;5063901;28;20021;-66
2022/03/24 06:42:19;;;;;;;27.52;11.70;;;;;;;4.89;72.11;99516.63;5063859;28;20020;-66
2022/03/24 06:44:44;;;;;;;25.27;12.60;;;;;;;5.20;71.60;99534.53;5064140;28;20021;-66
2022/03/24 06:47:09;;;;;;;25.60;10.98;;;;;;;5.54;70.95;99527.25;5063656;28;20081;-66
2022/03/24 06:49:35;;;;;;;30.15;11.73;;;;;;;5.89;70.11;99530.41;5063559;28;20025;-66
2022/03/24 06:52:00;;;;;;;29.52;14.32;;;;;;;6.16;69.38;99528.13;5063719;28;20240;-66
2022/03/24 06:54:26;;;;;;;18.80;10.27;;;;;;;6.50;68.75;99527.66;5063769;28;20275;-66
2022/03/24 06:56:51;;;;;;;24.50;11.27;;;;;;;6.97;67.67;99531.63;5063765;28;20052;-66
2022/03/24 06:59:17;;;;;;;21.30;11.60;;;;;;;7.16;66.81;99533.56;5063738;28;20083;-66
2022/03/24 07:01:42;;;;;;;21.02;10.68;;;;;;;7.36;65.94;99526.72;5063942;28;20085;-66
2022/03/24 07:04:08;;;;;;;20.30;9.85;;;;;;;7.76;65.27;99539.22;5063682;28;20032;-66
2022/03/24 07:06:34;;;;;;;19.70;10.85;;;;;;;7.98;64.51;99541.06;5063771;28;20336;-66
2022/03/24 07:09:00;;;;;;;20.10;9.63;;;;;;;8.28;63.99;99536.03;5063628;28;20020;-67
2022/03/24 07:11:25;;;;;;;17.48;9.82;;;;;;;8.52;63.93;99541.34;5063463;28;20016;-67
2022/03/24 07:13:50;;;;;;;18.23;10.05;;;;;;;8.94;61.50;99539.69;5063596;28;20047;-67
2022/03/24 07:16:16;;;;;;;20.05;9.63;;;;;;;9.15;62.23;99535.38;5063470;28;20317;-66
2022/03/24 07:18:41;;;;;;;23.23;9.88;;;;;;;9.60;60.86;99544.97;5063791;28;20217;-67
2022/03/24 07:21:07;;;;;;;16.95;9.90;;;;;;;9.96;59.82;99552.78;5063487;28;20100;-67
2022/03/24 07:23:32;;;;;;;17.90;9.38;;;;;;;10.10;58.30;99540.53;5063509;28;20096;-66
2022/03/24 07:25:57;;;;;;;19.83;9.48;;;;;;;10.40;58.70;99548.28;5063474;28;20127;-66
2022/03/24 07:28:23;;;;;;;14.45;8.70;;;;;;;10.73;58.52;99545.50;5063436;28;20036;-67
2022/03/24 07:30:50;;;;;;;15.98;9.52;;;;;;;10.84;56.53;99543.69;5063371;28;20264;-66
2022/03/24 07:33:17;;;;;;;17.10;9.90;;;;;;;11.50;56.44;99551.09;5063360;28;20024;-66
2022/03/24 07:35:42;;;;;;;13.15;8.65;;;;;;;11.89;55.85;99560.44;5063359;28;20132;-66
2022/03/24 07:38:09;;;;;;;14.13;8.82;;;;;;;12.19;54.95;99555.72;5063455;28;20028;-66
2022/03/24 07:40:34;;;;;;;15.60;8.98;;;;;;;12.45;54.99;99553.66;5063310;28;20025;-66
2022/03/24 07:43:00;;;;;;;15.82;9.95;;;;;;;12.74;54.17;99554.16;5063314;28;20243;-66
2022/03/24 07:45:26;;;;;;;16.13;9.73;;;;;;;12.73;54.26;99544.50;5063590;28;20017;-66
2022/03/24 07:48:10;;;;;;;16.08;10.55;;;;;;;13.20;53.62;99562.34;5063549;28;20039;-66
2022/03/24 07:50:38;;;;;;;20.38;10.93;;;;;;;13.60;52.14;99562.59;5063262;28;20025;-66
2022/03/24 07:53:32;;;;;;;20.60;9.63;;;;;;;13.89;51.96;99557.66;5063268;28;20024;-66
2022/03/24 07:55:59;;;;;;;16.40;10.60;;;;;;;14.16;51.26;99559.78;5044499;28;20041;-66
2022/03/24 07:58:26;;;;;;;24.50;12.18;;;;;;;14.40;50.47;99554.06;5063201;28;20227;-66
2022/03/24 08:00:52;;;;;;;21.92;12.23;;;;;;;14.65;50.25;99553.50;5066785;28;20374;-66
2022/03/24 08:03:20;;;;;;;20.05;12.80;;;;;;;15.36;48.58;99572.22;5066759;28;20048;-66
2022/03/24 08:05:47;;;;;;;17.00;10.73;;;;;;;15.63;48.19;99567.16;5066684;28;20029;-66
2022/03/24 08:08:14;;;;;;;21.90;12.13;;;;;;;16.13;48.02;99542.84;5066662;28;20025;-66
2022/03/24 08:10:41;;;;;;;25.33;13.77;;;;;;;14.93;48.63;99529.91;5066727;28;20029;-66
2022/03/24 08:13:11;;;;;;;20.70;12.77;;;;;;;15.66;48.88;99545.84;5066798;28;20028;-66
2022/03/24 08:15:37;;;;;;;23.63;12.77;;;;;;;15.92;49.70;99547.84;5066370;28;20052;-66
2022/03/24 08:18:06;;;;;;;20.27;12.32;;;;;;;16.71;47.55;99540.28;5066480;28;20029;-66
2022/03/24 08:20:36;;;;;;;20.45;11.68;;;;;;;17.48;47.03;99553.00;5066415;28;20080;-67
2022/03/24 08:23:02;;;;;;;23.63;13.82;;;;;;;17.83;45.67;99556.25;5066356;28;20056;-67
2022/03/24 08:25:28;;;;;;;26.67;12.88;;;;;;;18.45;44.55;99562.09;5066305;28;20036;-67
2022/03/24 08:27:54;;;;;;;22.98;13.32;;;;;;;19.04;43.58;99568.69;5066260;28;20028;-67
2022/03/24 08:30:19;;;;;;;23.70;12.80;;;;;;;18.95;44.17;99561.03;5066177;28;20395;-67
2022/03/24 08:32:45;;;;;;;28.50;14.57;;;;;;;18.90;45.68;99560.38;5066459;28;20045;-67
2022/03/24 08:35:10;;;;;;;28.60;14.40;;;;;;;19.56;42.57;99562.22;5066097;28;20028;-67
2022/03/24 08:37:36;;;;;;;26.92;12.70;;;;;;;20.02;41.13;99573.59;5066066;28;20118;-66
2022/03/24 08:40:04;;;;;;;22.73;13.35;;;;;;;19.91;41.98;99575.84;5066262;28;20021;-67
2022/03/24 08:42:29;;;;;;;22.52;13.40;;;;;;;20.37;39.33;99569.41;5065952;28;20028;-67
2022/03/24 08:44:55;;;;;;;27.40;14.98;;;;;;;20.70;39.23;99568.81;5065970;28;20221;-67
2022/03/24 08:47:20;;;;;;;25.63;13.73;;;;;;;21.16;37.99;99568.44;5065917;28;20035;-67
2022/03/24 08:49:46;;;;;;;29.00;15.25;;;;;;;21.30;36.42;99568.63;5065889;28;20032;-67
2022/03/24 08:52:12;;;;;;;24.60;14.05;;;;;;;21.41;35.96;99567.28;5065774;28;20029;-67
2022/03/24 08:54:38;;;;;;;26.08;13.57;;;;;;;21.44;36.71;99561.75;5066021;28;20021;-67
2022/03/24 08:57:03;;;;;;;26.40;14.38;;;;;;;21.29;35.46;99564.22;5065783;28;20221;-67
2022/03/24 08:59:29;;;;;;;22.77;13.43;;;;;;;21.73;36.05;99574.63;5065678;28;20036;-67
2022/03/24 09:01:54;;;;;;;28.35;14.43;;;;;;;21.17;35.41;99567.50;5065655;28;20217;-67
2022/03/24 09:04:23;;;;;;;23.98;14.30;;;;;;;21.56;35.91;99569.19;5065610;28;20028;-67
2022/03/24 09:06:49;;;;;;;25.80;13.93;;;;;;;21.11;38.48;99565.09;5065497;28;20075;-67
2022/03/24 09:09:14;;;;;;;26.27;14.27;;;;;;;21.86;35.78;99573.94;5065778;28;20024;-66
2022/03/24 09:11:40;;;;;;;22.52;13.30;;;;;;;22.06;35.79;99576.50;5064683;28;20025;-66
2022/03/24 09:14:05;;;;;;;25.63;13.95;;;;;;;22.48;34.60;99574.28;5065310;28;20036;-67
2022/03/24 09:16:31;;;;;;;25.17;14.75;;;;;;;21.73;34.95;99569.25;5065228;28;20041;-67
2022/03/24 09:18:56;;;;;;;27.58;13.45;;;;;;;21.75;37.26;99565.56;5065306;28;20048;-67
2022/03/24 09:21:22;;;;;;;24.00;13.95;;;;;;;22.32;34.99;99576.03;5065218;28;20317;-67
2022/03/24 09:23:48;;;;;;;26.85;14.20;;;;;;;22.84;35.25;99579.53;5065452;28;20049;-66
2022/03/24 09:26:13;;;;;;;28.42;15.57;;;;;;;22.89;34.37;99572.09;5065052;28;20021;-67
2022/03/24 09:28:39;;;;;;;25.52;13.98;;;;;;;22.26;34.12;99570.09;5065127;28;20255;-67
2022/03/24 09:31:05;;;;;;;25.23;15.32;;;;;;;22.18;34.00;99566.97;5065236;28;20276;-67
2022/03/24 09:33:30;;;;;;;26.35;13.50;;;;;;;22.54;33.42;99568.63;5065014;28;20025;-67
2022/03/24 09:35:56;;;;;;;30.88;15.55;;;;;;;22.85;32.50;99573.22;5065020;28;20056;-67
2022/03/24 09:38:22;;;;;;;25.00;13.32;;;;;;;23.12;32.73;99569.03;5064931;28;20058;-66
2022/03/24 09:40:48;;;;;;;25.15;13.52;;;;;;;22.81;31.04;99574.34;5064900;28;20075;-67
2022/03/24 09:43:14;;;;;;;25.95;14.07;;;;;;;23.00;33.55;99575.94;5064842;28;20020;-67
2022/03/24 09:45:44;;;;;;;31.30;14.13;;;;;;;23.36;32.75;99578.44;5064778;28;20028;-67
2022/03/24 09:48:11;;;;;;;30.55;15.00;;;;;;;23.27;32.41;99573.59;5064764;28;20060;-66
2022/03/24 09:50:37;;;;;;;25.33;14.80;;;;;;;23.38;32.03;99576.53;5064594;28;20052;-67
2022/03/24 09:53:03;;;;;;;25.10;13.30;;;;;;;23.35;33.37;99575.84;5064664;28;20028;-67
2022/03/24 09:55:32;;;;;;;27.85;14.98;;;;;;;23.71;31.20;99574.63;5064609;28;20024;-67
2022/03/24 09:57:59;;;;;;;25.38;13.98;;;;;;;23.65;31.00;99566.91;5064627;28;20092;-67
2022/03/24 10:00:25;;;;;;;27.83;15.90;;;;;;;22.70;30.23;99547.19;5064536;28;20025;-67
2022/03/24 10:03:06;;;;;;;30.52;15.68;;;;;;;23.24;33.04;99565.69;5064418;28;20017;-67
2022/03/24 10:05:31;;;;;;;26.40;14.50;;;;;;;22.96;31.58;99555.59;5064448;28;20224;-67
2022/03/24 10:08:04;;;;;;;27.02;14.90;;;;;;;23.43;31.20;99561.03;5064393;28;20024;-67
2022/03/24 10:10:31;;;;;;;29.10;15.38;;;;;;;23.75;30.48;99568.09;5064231;28;20021;-67
2022/03/24 10:12:56;;;;;;;25.38;13.82;;;;;;;23.28;32.08;99553.81;5064569;28;20036;-67
2022/03/24 10:15:22;;;;;;;28.88;14.43;;;;;;;23.42;30.69;99562.00;5064099;28;20037;-67
2022/03/24 10:17:56;;;;;;;25.08;14.75;;;;;;;23.95;28.69;99557.09;5064226;28;20028;-67
2022/03/24 10:20:23;;;;;;;28.70;15.90;;;;;;;23.59;30.04;99558.31;5064469;28;20374;-66
2022/03/24 10:23:06;;;;;;;25.25;14.68;;;;;;;23.75;28.24;99560.03;5063265;28;20075;-67
2022/03/24 10:25:38;;;;;;;26.17;14.30;;;;;;;23.37;30.36;99558.69;5064384;28;20309;-67
2022/03/24 10:28:04;;;;;;;;;;;;;;;23.31;29.96;99559.03;5064538;28;20029;-67
2022/03/24 10:30:46;;;;;;;26.65;14.32;;;;;;;23.93;27.46;99566.16;5063966;28;19915;-67
2022/03/24 10:33:26;;;;;;;22.10;13.40;;;;;;;23.94;28.18;99555.34;5064093;28;20027;-67
2022/03/24 10:36:07;;;;;;;28.02;15.68;;;;;;;22.26;28.77;99535.22;5064039;28;20059;-67
2022/03/24 10:38:34;;;;;;;26.17;14.88;;;;;;;22.99;30.22;99552.72;5063986;28;20347;-67
2022/03/24 10:41:18;;;;;;;28.38;14.27;;;;;;;23.08;27.29;99554.03;5063899;28;20065;-67
2022/03/24 10:43:45;;;;;;;29.58;14.05;;;;;;;22.99;28.99;99551.84;5063974;28;20046;-67
2022/03/24 10:46:22;;;;;;;26.95;13.95;;;;;;;22.85;29.42;99549.06;5063865;28;20082;-66
2022/03/24 10:48:49;;;;;;;29.23;13.32;;;;;;;22.25;29.84;99541.56;5063858;28;20251;-67
2022/03/24 10:51:25;;;;;;;24.27;13.55;;;;;;;22.65;27.72;99542.06;5063779;28;20017;-67
2022/03/24 10:53:51;;;;;;;23.00;13.10;;;;;;;22.74;28.21;99546.06;5063726;28;20025;-67
2022/03/24 10:56:25;;;;;;;21.25;11.15;;;;;;;22.84;27.35;99548.19;5063769;28;20020;-67
2022/03/24 10:59:02;;;;;;;24.67;13.55;;;;;;;22.39;27.44;99536.31;5063781;28;20024;-67
2022/03/24 11:01:29;;;;;;;19.13;10.15;;;;;;;22.61;27.45;99545.00;5063743;28;20309;-67
2022/03/24 11:03:55;;;;;;;20.30;9.85;;;;;;;22.36;26.91;99539.16;5063687;28;20066;-67
2022/03/24 11:06:24;;;;;;;21.27;11.00;;;;;;;21.95;28.23;99544.00;5063660;28;20025;-67
2022/03/24 11:08:59;;;;;;;25.58;12.32;;;;;;;21.93;27.59;99534.31;5063648;28;20075;-67
2022/03/24 11:11:25;;;;;;;20.58;10.75;;;;;;;22.23;27.87;99543.44;5063737;28;20312;-67
2022/03/24 11:13:53;;;;;;;18.23;10.13;;;;;;;22.31;29.25;99541.25;5063564;28;20099;-67
2022/03/24 11:16:21;;;;;;;19.70;11.50;;;;;;;22.37;28.73;99535.56;5063376;28;20104;-67
2022/03/24 11:18:47;;;;;;;22.95;11.55;;;;;;;21.94;27.50;99526.19;5063546;28;20220;-67
2022/03/24 11:21:34;;;;;;;24.83;11.27;;;;;;;22.13;28.46;99531.47;5063449;28;20370;-67